Time;durP1;ratioP1;P1;durP2;ratioP2;P2;SDS_P1;SDS_P2;PMS_P1;PMS_P2;Temp;Humidity;BMP_temperature;BMP_pressure;BME280_temperature;BME280_humidity;BME280_pressure;Samples;Min_cycle;Max_cycle;Signal;HPM_P1;HPM_P2
2021/03/14 00:00:12;;;;;;;5.38;1.80;;;;;;;;;;5073958;28;20653;-78
2021/03/14 00:02:38;;;;;;;5.43;2.22;;;;;;;;;;5074065;28;20201;-78
2021/03/14 00:05:05;;;;;;;7.78;1.83;;;;;;;;;;5073654;28;20199;-77
2021/03/14 00:07:31;;;;;;;9.15;2.35;;;;;;;;;;5073641;28;20177;-77
2021/03/14 00:09:57;;;;;;;5.90;2.47;;;;;;;;;;5074032;28;20180;-77
2021/03/14 00:12:23;;;;;;;7.47;1.92;;;;;;;;;;5073875;28;20181;-77
2021/03/14 00:14:49;;;;;;;6.40;2.10;;;;;;;;;;5073591;28;20283;-78
2021/03/14 00:17:15;;;;;;;4.95;2.28;;;;;;;;;;5073594;28;20407;-79
2021/03/14 00:19:41;;;;;;;8.85;2.22;;;;;;;;;;5073553;28;20181;-78
2021/03/14 00:22:07;;;;;;;3.37;2.20;;;;;;;;;;5073893;28;20694;-79
2021/03/14 00:24:33;;;;;;;5.70;1.90;;;;;;;;;;5073407;28;20437;-78
2021/03/14 00:26:59;;;;;;;7.03;2.60;;;;;;;;;;5073683;28;20188;-79
2021/03/14 00:29:26;;;;;;;8.88;2.10;;;;;;;;;;5073463;28;20176;-78
2021/03/14 00:31:52;;;;;;;4.53;2.78;;;;;;;;;;5055870;28;20185;-78
2021/03/14 00:34:18;;;;;;;3.92;2.15;;;;;;;;;;5073087;28;20195;-79
2021/03/14 00:36:44;;;;;;;8.57;1.83;;;;;;;;;;5073384;28;20188;-77
2021/03/14 00:39:10;;;;;;;6.65;2.10;;;;;;;;;;5073457;28;20180;-78
2021/03/14 00:41:36;;;;;;;8.73;2.20;;;;;;;;;;5073384;28;20222;-77
2021/03/14 00:44:02;;;;;;;9.65;3.10;;;;;;;;;;5055375;28;20204;-77
2021/03/14 00:46:30;;;;;;;6.28;1.95;;;;;;;;;;5073341;28;20176;-78
2021/03/14 00:48:56;;;;;;;4.57;1.85;;;;;;;;;;5055343;28;20175;-78
2021/03/14 00:51:22;;;;;;;4.32;2.00;;;;;;;;;;5073394;28;20270;-78
2021/03/14 00:53:48;;;;;;;5.47;2.38;;;;;;;;;;5072793;28;20617;-77
2021/03/14 00:56:14;;;;;;;19.40;3.60;;;;;;;;;;5073373;28;20268;-78
2021/03/14 00:58:41;;;;;;;5.30;1.80;;;;;;;;;;5055558;28;20806;-78
2021/03/14 01:01:07;;;;;;;5.03;2.53;;;;;;;;;;5055193;28;20300;-78
2021/03/14 01:03:33;;;;;;;5.43;1.55;;;;;;;;;;5072911;28;20588;-78
2021/03/14 01:05:59;;;;;;;3.97;1.60;;;;;;;;;;5055296;28;20181;-78
2021/03/14 01:08:25;;;;;;;4.10;1.40;;;;;;;;;;5073269;28;20173;-78
2021/03/14 01:10:51;;;;;;;4.15;1.60;;;;;;;;;;5073390;28;20172;-78
2021/03/14 01:13:17;;;;;;;5.65;1.40;;;;;;;;;;5038320;28;20196;-78
2021/03/14 01:15:43;;;;;;;5.93;1.85;;;;;;;;;;5073015;28;20221;-77
2021/03/14 01:18:09;;;;;;;4.32;1.65;;;;;;;;;;5072975;28;20187;-78
2021/03/14 01:20:35;;;;;;;4.28;1.80;;;;;;;;;;5072418;28;20203;-79
2021/03/14 01:23:01;;;;;;;5.85;1.58;;;;;;;;;;5072483;28;20257;-78
2021/03/14 01:25:27;;;;;;;6.80;1.30;;;;;;;;;;5054905;28;20200;-78
2021/03/14 01:27:54;;;;;;;2.80;1.35;;;;;;;;;;5072949;28;20543;-79
2021/03/14 01:30:20;;;;;;;5.30;1.48;;;;;;;;;;5054885;28;20184;-79
2021/03/14 01:32:47;;;;;;;1.52;0.98;;;;;;;;;;5072920;28;20177;-78
2021/03/14 01:35:14;;;;;;;2.25;1.00;;;;;;;;;;5072626;28;20566;-76
2021/03/14 01:37:40;;;;;;;3.45;1.60;;;;;;;;;;5072883;28;20200;-78
2021/03/14 01:40:07;;;;;;;4.82;1.55;;;;;;;;;;5072701;28;20204;-79
2021/03/14 01:42:33;;;;;;;2.35;1.13;;;;;;;;;;5038366;28;20216;-79
2021/03/14 01:44:59;;;;;;;5.35;1.73;;;;;;;;;;5054779;28;20732;-79
2021/03/14 01:47:30;;;;;;;5.00;1.02;;;;;;;;;;5054834;28;20681;-79
2021/03/14 01:49:57;;;;;;;2.85;1.00;;;;;;;;;;5072455;28;20207;-80
2021/03/14 01:52:23;;;;;;;2.15;0.90;;;;;;;;;;5072626;28;20256;-79
2021/03/14 01:54:49;;;;;;;4.30;1.30;;;;;;;;;;5054635;28;20209;-78
2021/03/14 01:57:16;;;;;;;4.50;1.30;;;;;;;;;;5073109;28;20169;-78
2021/03/14 01:59:43;;;;;;;4.32;1.98;;;;;;;;;;5073748;28;20203;-80
2021/03/14 02:02:09;;;;;;;4.13;1.05;;;;;;;;;;5077062;28;20677;-78
2021/03/14 02:04:35;;;;;;;5.10;1.30;;;;;;;;;;5072390;28;20193;-78
2021/03/14 02:07:01;;;;;;;2.20;1.35;;;;;;;;;;5055442;28;20185;-79
2021/03/14 02:09:27;;;;;;;4.53;1.55;;;;;;;;;;5072509;28;20204;-79
2021/03/14 02:11:54;;;;;;;4.87;1.30;;;;;;;;;;5072374;28;20652;-78
2021/03/14 02:14:20;;;;;;;6.93;1.10;;;;;;;;;;5071895;28;20427;-78
2021/03/14 02:16:48;;;;;;;4.15;1.17;;;;;;;;;;5072691;28;20206;-77
2021/03/14 02:19:20;;;;;;;2.78;1.65;;;;;;;;;;5072515;28;20177;-78
2021/03/14 02:21:46;;;;;;;5.10;1.23;;;;;;;;;;5054512;28;20204;-78
2021/03/14 02:24:16;;;;;;;5.15;1.42;;;;;;;;;;5071871;28;20199;-77
2021/03/14 02:26:45;;;;;;;6.85;1.48;;;;;;;;;;5072409;28;20177;-77
2021/03/14 02:29:21;;;;;;;3.75;1.48;;;;;;;;;;5054744;28;20199;-77
2021/03/14 02:31:49;;;;;;;4.47;1.27;;;;;;;;;;5075682;28;20172;-77
2021/03/14 02:34:16;;;;;;;3.13;1.63;;;;;;;;;;5075516;28;20192;-77
2021/03/14 02:36:43;;;;;;;3.50;2.17;;;;;;;;;;5075869;28;20190;-78
2021/03/14 02:39:11;;;;;;;1.50;0.90;;;;;;;;;;5058171;28;20242;-78
2021/03/14 02:41:37;;;;;;;1.50;1.20;;;;;;;;;;5075867;28;20603;-78
2021/03/14 02:44:04;;;;;;;5.80;1.58;;;;;;;;;;5057839;28;20275;-79
2021/03/14 02:46:30;;;;;;;3.95;1.60;;;;;;;;;;5075813;28;20176;-78
2021/03/14 02:48:57;;;;;;;3.05;1.95;;;;;;;;;;5075762;28;20192;-78
2021/03/14 02:51:24;;;;;;;4.60;1.70;;;;;;;;;;5075809;28;20580;-78
2021/03/14 02:53:50;;;;;;;4.05;1.67;;;;;;;;;;5075444;28;20216;-77
2021/03/14 02:56:16;;;;;;;6.10;1.73;;;;;;;;;;5057463;28;20258;-78
2021/03/14 02:58:43;;;;;;;1.77;1.67;;;;;;;;;;5057541;28;20211;-77
2021/03/14 03:01:09;;;;;;;8.20;2.25;;;;;;;;;;5075515;28;20262;-78
2021/03/14 03:03:36;;;;;;;4.50;2.20;;;;;;;;;;5075074;28;20196;-78
2021/03/14 03:06:02;;;;;;;3.65;2.13;;;;;;;;;;5075503;28;20187;-78
2021/03/14 03:08:31;;;;;;;4.43;2.30;;;;;;;;;;5075343;28;20172;-78
2021/03/14 03:10:58;;;;;;;6.65;3.30;;;;;;;;;;5075370;28;20201;-78
2021/03/14 03:13:25;;;;;;;3.47;1.90;;;;;;;;;;5074840;28;20266;-78
2021/03/14 03:15:51;;;;;;;4.53;2.15;;;;;;;;;;5075376;28;20189;-78
2021/03/14 03:18:20;;;;;;;8.68;3.35;;;;;;;;;;5075323;28;20184;-78
2021/03/14 03:20:47;;;;;;;14.35;2.95;;;;;;;;;;5075396;28;20284;-78
2021/03/14 03:23:14;;;;;;;10.15;4.00;;;;;;;;;;5074761;28;20184;-77
2021/03/14 03:25:40;;;;;;;8.65;3.35;;;;;;;;;;5075086;28;20248;-79
2021/03/14 03:28:06;;;;;;;4.22;2.45;;;;;;;;;;5074921;28;20180;-79
2021/03/14 03:30:33;;;;;;;8.80;3.50;;;;;;;;;;5074968;28;20214;-78
2021/03/14 03:32:59;;;;;;;11.18;3.53;;;;;;;;;;5074925;28;20181;-79
2021/03/14 03:35:26;;;;;;;8.75;2.92;;;;;;;;;;5074799;28;20195;-79
2021/03/14 03:37:52;;;;;;;12.57;3.15;;;;;;;;;;5074799;28;20161;-79
2021/03/14 03:40:21;;;;;;;10.38;3.33;;;;;;;;;;5074717;28;20207;-79
2021/03/14 03:42:48;;;;;;;7.10;3.33;;;;;;;;;;5073919;28;20169;-78
2021/03/14 03:45:14;;;;;;;7.53;2.65;;;;;;;;;;5056641;28;20192;-78
2021/03/14 03:47:42;;;;;;;10.93;2.78;;;;;;;;;;5074603;28;20251;-79
2021/03/14 03:50:08;;;;;;;13.90;3.03;;;;;;;;;;5074510;28;20180;-78
2021/03/14 03:52:35;;;;;;;9.80;3.25;;;;;;;;;;5074481;28;20180;-79
2021/03/14 03:55:02;;;;;;;5.75;2.15;;;;;;;;;;5074052;28;20242;-79
2021/03/14 03:57:28;;;;;;;6.82;2.10;;;;;;;;;;5056507;28;20184;-80
2021/03/14 03:59:54;;;;;;;10.02;2.75;;;;;;;;;;5074313;28;20223;-79
2021/03/14 04:02:23;;;;;;;14.85;3.38;;;;;;;;;;5074294;28;20557;-78
2021/03/14 04:04:49;;;;;;;9.90;2.17;;;;;;;;;;5055895;28;20207;-79
2021/03/14 04:07:15;;;;;;;10.30;2.28;;;;;;;;;;5074222;28;20177;-79
2021/03/14 04:09:43;;;;;;;10.35;2.92;;;;;;;;;;5074121;28;20176;-79
2021/03/14 04:12:10;;;;;;;5.60;2.28;;;;;;;;;;5056396;28;20246;-78
2021/03/14 04:14:36;;;;;;;6.60;2.13;;;;;;;;;;5055842;28;20228;-79
2021/03/14 04:17:04;;;;;;;12.90;3.78;;;;;;;;;;5074042;28;20177;-78
2021/03/14 04:19:32;;;;;;;6.32;2.40;;;;;;;;;;5073953;28;20176;-79
2021/03/14 04:21:59;;;;;;;8.40;1.92;;;;;;;;;;5073809;28;20244;-79
2021/03/14 04:24:25;;;;;;;5.22;2.10;;;;;;;;;;5073513;28;20275;-79
2021/03/14 04:26:51;;;;;;;3.40;1.80;;;;;;;;;;5039517;28;20271;-79
2021/03/14 04:29:18;;;;;;;9.88;2.60;;;;;;;;;;5073748;28;20222;-78
2021/03/14 04:31:46;;;;;;;2.97;1.80;;;;;;;;;;5073767;28;20179;-79
2021/03/14 04:34:13;;;;;;;8.13;3.80;;;;;;;;;;5073375;28;20200;-78
2021/03/14 04:36:40;;;;;;;6.60;2.33;;;;;;;;;;5073781;28;20180;-79
2021/03/14 04:39:06;;;;;;;9.98;2.63;;;;;;;;;;5055843;28;20183;-79
2021/03/14 04:41:34;;;;;;;2.58;1.70;;;;;;;;;;5073424;28;20607;-78
2021/03/14 04:44:00;;;;;;;6.25;3.10;;;;;;;;;;5073158;28;20201;-79
2021/03/14 04:46:27;;;;;;;19.60;2.40;;;;;;;;;;5073622;28;20169;-79
2021/03/14 04:48:56;;;;;;;6.57;2.65;;;;;;;;;;5073454;28;20860;-79
2021/03/14 04:51:26;;;;;;;11.50;2.90;;;;;;;;;;5073186;28;20185;-78
2021/03/14 04:53:52;;;;;;;13.15;2.40;;;;;;;;;;5054256;28;20667;-78
2021/03/14 04:56:19;;;;;;;8.35;2.45;;;;;;;;;;5073195;28;20181;-79
2021/03/14 04:58:46;;;;;;;9.68;3.08;;;;;;;;;;5055211;28;20596;-79
2021/03/14 05:01:13;;;;;;;9.20;2.13;;;;;;;;;;5038480;28;20219;-78
2021/03/14 05:03:41;;;;;;;6.40;2.15;;;;;;;;;;5054621;28;20242;-79
2021/03/14 05:06:08;;;;;;;6.00;2.22;;;;;;;;;;5073238;28;20196;-79
2021/03/14 05:08:34;;;;;;;8.73;2.97;;;;;;;;;;5055522;28;20633;-79
2021/03/14 05:11:00;;;;;;;12.82;2.60;;;;;;;;;;5055228;28;20189;-78
2021/03/14 05:13:27;;;;;;;12.38;2.28;;;;;;;;;;5072747;28;20196;-79
2021/03/14 05:15:54;;;;;;;8.65;2.70;;;;;;;;;;5073229;28;20259;-78
2021/03/14 05:18:20;;;;;;;5.95;2.35;;;;;;;;;;5073241;28;20182;-79
2021/03/14 05:20:47;;;;;;;13.02;2.85;;;;;;;;;;5073050;28;20233;-79
2021/03/14 05:23:13;;;;;;;11.30;3.58;;;;;;;;;;5072807;28;20561;-78
2021/03/14 05:25:40;;;;;;;7.88;2.78;;;;;;;;;;5055360;28;20678;-79
2021/03/14 05:28:06;;;;;;;9.80;2.42;;;;;;;;;;5073038;28;20678;-79
2021/03/14 05:30:34;;;;;;;5.60;2.30;;;;;;;;;;5072887;28;20623;-81
2021/03/14 05:33:01;;;;;;;7.93;4.10;;;;;;;;;;5072395;28;20222;-80
2021/03/14 05:35:28;;;;;;;7.55;3.20;;;;;;;;;;5072836;28;20208;-78
2021/03/14 05:37:54;;;;;;;9.63;2.40;;;;;;;;;;5055238;28;20203;-79
2021/03/14 05:40:22;;;;;;;8.98;3.70;;;;;;;;;;5054733;28;20211;-78
2021/03/14 05:42:48;;;;;;;7.38;3.40;;;;;;;;;;5073082;28;20218;-78
2021/03/14 05:45:16;;;;;;;5.68;3.63;;;;;;;;;;5072597;28;20197;-79
2021/03/14 05:47:42;;;;;;;9.15;3.90;;;;;;;;;;5073009;28;20157;-79
2021/03/14 05:50:09;;;;;;;5.63;3.22;;;;;;;;;;5072821;28;20173;-79
2021/03/14 05:52:38;;;;;;;7.13;3.53;;;;;;;;;;5072627;28;20656;-79
2021/03/14 05:55:05;;;;;;;7.10;3.08;;;;;;;;;;5054255;28;20204;-81
2021/03/14 05:57:31;;;;;;;9.27;5.45;;;;;;;;;;5038251;28;20192;-79
2021/03/14 05:59:57;;;;;;;7.57;4.22;;;;;;;;;;5073166;28;20584;-79
2021/03/14 06:02:26;;;;;;;7.28;3.75;;;;;;;;;;5072986;28;20169;-80
2021/03/14 06:04:54;;;;;;;8.73;4.50;;;;;;;;;;5055474;28;20193;-79
2021/03/14 06:07:20;;;;;;;10.98;4.30;;;;;;;;;;5077822;28;20184;-79
2021/03/14 06:09:46;;;;;;;10.70;4.00;;;;;;;;;;5058642;28;20549;-79
2021/03/14 06:12:13;;;;;;;9.82;4.00;;;;;;;;;;5076368;28;20557;-79
2021/03/14 06:14:40;;;;;;;11.93;4.88;;;;;;;;;;5076175;28;20677;-79
2021/03/14 06:17:06;;;;;;;5.57;3.65;;;;;;;;;;5076528;28;20195;-79
2021/03/14 06:19:32;;;;;;;11.00;4.13;;;;;;;;;;5076381;28;20206;-78
2021/03/14 06:22:37;;;;;;;10.27;4.10;;;;;;;;;;5076211;28;20232;-79
2021/03/14 06:25:03;;;;;;;12.80;4.35;;;;;;;;;;4994332;28;20640;-79
2021/03/14 06:27:37;;;;;;;7.47;3.92;;;;;;;;;;4994862;28;20302;-79
2021/03/14 06:30:06;;;;;;;9.32;4.90;;;;;;;;;;5037490;28;20599;-79
2021/03/14 06:32:32;;;;;;;10.73;4.10;;;;;;;;;;5076113;28;20176;-79
2021/03/14 06:35:09;;;;;;;9.07;4.60;;;;;;;;;;5075776;28;20330;-79
2021/03/14 06:37:35;;;;;;;10.88;4.90;;;;;;;;;;5076054;28;20253;-80
2021/03/14 06:40:07;;;;;;;5.43;3.67;;;;;;;;;;5057822;28;20697;-79
2021/03/14 06:42:34;;;;;;;11.43;5.15;;;;;;;;;;5058238;28;20450;-79
2021/03/14 06:45:02;;;;;;;9.80;4.43;;;;;;;;;;5075981;28;20192;-80
2021/03/14 06:47:41;;;;;;;7.32;3.60;;;;;;;;;;5058094;28;20169;-79
2021/03/14 06:50:08;;;;;;;6.22;3.83;;;;;;;;;;5075585;28;20632;-80
2021/03/14 06:52:34;;;;;;;15.45;3.97;;;;;;;;;;5075799;28;20188;-79
2021/03/14 06:55:00;;;;;;;10.45;3.20;;;;;;;;;;5075219;28;20566;-79
2021/03/14 06:57:27;;;;;;;8.68;3.70;;;;;;;;;;5057852;28;20616;-79
2021/03/14 06:59:59;;;;;;;10.07;3.47;;;;;;;;;;5075643;28;20204;-80
2021/03/14 07:02:30;;;;;;;8.10;3.13;;;;;;;;;;5075438;28;20512;-80
2021/03/14 07:04:56;;;;;;;22.60;6.20;;;;;;;;;;5075274;28;20231;-80
2021/03/14 07:07:32;;;;;;;7.43;2.88;;;;;;;;;;5075555;28;20173;-79
2021/03/14 07:09:58;;;;;;;7.43;3.20;;;;;;;;;;5075570;28;20149;-81
2021/03/14 07:12:29;;;;;;;7.93;3.88;;;;;;;;;;5057353;28;20188;-80
2021/03/14 07:14:55;;;;;;;6.93;3.15;;;;;;;;;;5075029;28;20188;-80
2021/03/14 07:17:28;;;;;;;7.60;3.55;;;;;;;;;;5074315;28;20165;-79
2021/03/14 07:19:55;;;;;;;8.63;3.45;;;;;;;;;;5075414;28;20173;-79
2021/03/14 07:22:21;;;;;;;6.35;3.33;;;;;;;;;;5057403;28;20254;-80
2021/03/14 07:24:47;;;;;;;10.32;3.47;;;;;;;;;;5074788;28;20227;-79
2021/03/14 07:27:14;;;;;;;10.57;3.90;;;;;;;;;;5075437;28;20536;-80
2021/03/14 07:29:41;;;;;;;7.25;3.20;;;;;;;;;;5074995;28;20184;-80
2021/03/14 07:32:09;;;;;;;7.30;3.50;;;;;;;;;;5057353;28;20748;-80
2021/03/14 07:34:35;;;;;;;9.00;4.93;;;;;;;;;;5074606;28;20196;-80
2021/03/14 07:37:01;;;;;;;11.52;3.45;;;;;;;;;;5075302;28;20198;-79
2021/03/14 07:39:27;;;;;;;8.10;3.10;;;;;;;;;;5074955;28;20181;-81
2021/03/14 07:41:54;;;;;;;8.20;3.15;;;;;;;;;;5074672;28;20291;-80
2021/03/14 07:44:21;;;;;;;9.38;3.40;;;;;;;;;;5074326;28;20199;-80
2021/03/14 07:46:47;;;;;;;6.35;3.60;;;;;;;;;;5074647;28;20183;-79
2021/03/14 07:49:15;;;;;;;12.63;2.80;;;;;;;;;;5074881;28;20808;-80
2021/03/14 07:52:04;;;;;;;10.50;4.15;;;;;;;;;;5074641;28;20531;-80
2021/03/14 07:54:38;;;;;;;9.35;3.15;;;;;;;;;;5063729;28;20282;-79
2021/03/14 07:57:04;;;;;;;12.65;3.13;;;;;;;;;;5074624;28;20182;-80
2021/03/14 07:59:31;;;;;;;7.03;3.10;;;;;;;;;;5074425;28;20185;-80
2021/03/14 08:02:16;;;;;;;8.90;3.60;;;;;;;;;;5074210;28;20722;-80
2021/03/14 08:04:45;;;;;;;7.85;3.20;;;;;;;;;;5073901;28;20200;-80
2021/03/14 08:07:11;;;;;;;7.07;3.70;;;;;;;;;;5074496;28;20537;-80
2021/03/14 08:09:41;;;;;;;6.65;4.53;;;;;;;;;;5056570;28;20519;-80
2021/03/14 08:12:33;;;;;;;12.10;3.83;;;;;;;;;;5056125;28;20227;-79
2021/03/14 08:14:59;;;;;;;9.07;4.15;;;;;;;;;;5070031;28;20270;-80
2021/03/14 08:17:26;;;;;;;12.52;4.40;;;;;;;;;;5073972;28;20186;-80
2021/03/14 08:19:53;;;;;;;12.18;4.03;;;;;;;;;;5073973;28;20169;-80
2021/03/14 08:22:38;;;;;;;11.82;4.72;;;;;;;;;;5073886;28;20279;-80
2021/03/14 08:25:30;;;;;;;14.52;4.82;;;;;;;;;;5073500;28;20229;-80
2021/03/14 08:28:22;;;;;;;16.45;4.75;;;;;;;;;;5069904;28;20223;-79
2021/03/14 08:30:48;;;;;;;11.48;4.82;;;;;;;;;;5073708;28;20583;-80
2021/03/14 08:33:17;;;;;;;9.68;4.10;;;;;;;;;;5072978;28;20266;-79
2021/03/14 08:35:44;;;;;;;15.88;3.88;;;;;;;;;;5073566;28;20166;-80
2021/03/14 08:38:23;;;;;;;5.90;3.90;;;;;;;;;;5073536;28;20229;-80
2021/03/14 08:40:50;;;;;;;8.15;3.55;;;;;;;;;;5055429;28;20210;-80
2021/03/14 08:43:36;;;;;;;10.25;4.25;;;;;;;;;;5055227;28;20179;-80
2021/03/14 08:46:02;;;;;;;9.75;4.22;;;;;;;;;;5073350;28;20251;-80
2021/03/14 08:48:28;;;;;;;10.43;4.97;;;;;;;;;;5073303;28;20236;-79
2021/03/14 08:50:54;;;;;;;7.85;4.88;;;;;;;;;;5073398;28;20625;-79
2021/03/14 08:53:20;;;;;;;11.18;5.38;;;;;;;;;;5055116;28;20278;-77
2021/03/14 08:55:46;;;;;;;9.25;4.50;;;;;;;;;;5073155;28;20202;-77
2021/03/14 08:58:13;;;;;;;13.52;5.22;;;;;;;;;;5072949;28;20220;-76
2021/03/14 09:00:39;;;;;;;8.50;5.25;;;;;;;;;;5072956;28;20198;-76
2021/03/14 09:03:05;;;;;;;7.93;4.57;;;;;;;;;;5072516;28;20174;-78
2021/03/14 09:05:46;;;;;;;7.72;3.47;;;;;;;;;;5072819;28;20191;-79
2021/03/14 09:08:17;;;;;;;5.32;2.88;;;;;;;;;;5054924;28;20188;-77
2021/03/14 09:10:43;;;;;;;6.60;4.32;;;;;;;;;;5073371;28;20179;-77
2021/03/14 09:13:09;;;;;;;8.23;3.70;;;;;;;;;;5072356;28;20205;-78
2021/03/14 09:15:35;;;;;;;8.70;3.67;;;;;;;;;;5072817;28;20200;-79
2021/03/14 09:18:03;;;;;;;9.57;3.97;;;;;;;;;;5072720;28;20191;-77
2021/03/14 09:20:29;;;;;;;9.07;2.92;;;;;;;;;;5072788;28;20615;-77
2021/03/14 09:22:55;;;;;;;3.00;2.75;;;;;;;;;;5072688;28;20263;-78
2021/03/14 09:25:21;;;;;;;7.30;2.85;;;;;;;;;;5054244;28;20335;-77
2021/03/14 09:27:48;;;;;;;4.28;2.60;;;;;;;;;;5054979;28;20528;-77
2021/03/14 09:30:17;;;;;;;4.50;2.40;;;;;;;;;;5054702;28;20176;-78
2021/03/14 09:32:50;;;;;;;4.45;2.03;;;;;;;;;;5072740;28;20239;-77
2021/03/14 09:35:21;;;;;;;4.53;2.80;;;;;;;;;;5072399;28;20291;-77
2021/03/14 09:37:48;;;;;;;6.45;3.83;;;;;;;;;;5072598;28;20173;-78
2021/03/14 09:40:21;;;;;;;5.35;2.60;;;;;;;;;;5073470;28;20257;-78
2021/03/14 09:42:49;;;;;;;9.77;3.78;;;;;;;;;;5076643;28;20638;-77
2021/03/14 09:45:17;;;;;;;4.05;2.75;;;;;;;;;;5076518;28;20195;-77
2021/03/14 09:48:02;;;;;;;4.70;2.47;;;;;;;;;;5076675;28;20208;-78
2021/03/14 09:50:29;;;;;;;8.23;2.80;;;;;;;;;;5076687;28;20186;-78
2021/03/14 09:52:58;;;;;;;3.80;2.65;;;;;;;;;;5058393;28;20633;-76
2021/03/14 09:55:25;;;;;;;5.38;2.60;;;;;;;;;;5075980;28;20200;-77
2021/03/14 09:57:51;;;;;;;5.28;3.00;;;;;;;;;;5076330;28;20173;-77
2021/03/14 10:00:21;;;;;;;3.10;2.80;;;;;;;;;;5076334;28;20181;-77
2021/03/14 10:02:48;;;;;;;4.28;3.30;;;;;;;;;;5058295;28;20189;-78
2021/03/14 10:05:14;;;;;;;3.63;3.25;;;;;;;;;;5075855;28;20566;-77
2021/03/14 10:07:40;;;;;;;5.03;3.55;;;;;;;;;;5058059;28;20189;-77
2021/03/14 10:10:09;;;;;;;4.38;2.75;;;;;;;;;;5076272;28;20170;-76
2021/03/14 10:12:35;;;;;;;4.68;3.42;;;;;;;;;;5058048;28;20531;-77
2021/03/14 10:15:02;;;;;;;6.63;3.33;;;;;;;;;;5075638;28;20190;-78
2021/03/14 10:17:28;;;;;;;4.45;3.42;;;;;;;;;;5075949;28;20578;-77
2021/03/14 10:19:54;;;;;;;14.18;10.40;;;;;;;;;;5075795;28;20172;-77
2021/03/14 10:22:33;;;;;;;6.70;3.30;;;;;;;;;;5075881;28;20212;-76
2021/03/14 10:24:59;;;;;;;5.45;3.50;;;;;;;;;;5075547;28;20730;-78
2021/03/14 10:27:27;;;;;;;6.63;2.90;;;;;;;;;;5057943;28;20230;-76
2021/03/14 10:29:57;;;;;;;3.92;2.72;;;;;;;;;;5075666;28;20238;-78
2021/03/14 10:32:26;;;;;;;2.83;2.28;;;5.60;99.90;;;;;;5075734;28;20173;-78
2021/03/14 10:34:53;;;;;;;4.25;2.42;;;5.60;99.90;;;;;;5057319;28;20201;-77
2021/03/14 10:37:33;;;;;;;4.18;2.75;;;5.60;99.90;;;;;;5075598;28;20180;-77
2021/03/14 10:40:09;;;;;;;5.50;3.03;;;5.50;99.90;;;;;;5057501;28;20287;-77
2021/03/14 10:42:44;;;;;;;2.15;1.95;;;5.50;99.90;;;;;;5075375;28;20240;-77
2021/03/14 10:45:10;;;;;;;5.43;3.20;;;;;;;;;;5075148;28;20202;-78
2021/03/14 10:47:37;;;;;;;3.60;2.88;;;5.60;99.90;;;;;;5057338;28;20222;-77
2021/03/14 10:50:22;;;;;;;7.03;3.47;;;5.70;99.90;;;;;;5057483;28;20196;-77
2021/03/14 10:53:19;;;;;;;4.25;2.90;;;6.00;99.90;;;;;;5074579;28;20268;-77
2021/03/14 10:55:46;;;;;;;4.25;2.83;;;6.00;99.90;;;;;;5068964;28;20252;-78
2021/03/14 10:58:16;;;;;;;5.13;3.30;;;6.30;99.90;;;;;;5037237;28;20622;-77
2021/03/14 11:00:46;;;;;;;5.00;3.55;;;6.50;99.90;;;;;;5058734;28;20200;-77
2021/03/14 11:03:31;;;;;;;4.68;3.92;;;6.50;99.90;;;;;;5069601;28;20181;-77
2021/03/14 11:06:21;;;;;;;5.53;3.50;;;6.20;99.90;;;;;;5056205;28;20172;-77
2021/03/14 11:09:03;;;;;;;5.93;3.38;;;6.20;99.90;;;;;;5075127;28;20183;-77
2021/03/14 11:11:37;;;;;;;7.75;4.07;;;6.10;99.90;;;;;;5074788;28;20195;-77
2021/03/14 11:14:25;;;;;;;6.10;3.90;;;6.30;99.90;;;;;;5073836;28;20711;-75
2021/03/14 11:17:19;;;;;;;7.47;3.72;;;6.40;99.90;;;;;;5074974;28;20161;-77
2021/03/14 11:19:46;;;;;;;4.47;3.50;;;6.50;99.90;;;;;;5056614;28;20267;-77
2021/03/14 11:22:13;;;;;;;4.70;3.95;;;6.60;99.90;;;;;;5074613;28;20224;-77
2021/03/14 11:24:40;;;;;;;4.47;3.15;;;6.50;99.90;;;;;;5074342;28;20193;-77
2021/03/14 11:27:06;;;;;;;6.40;3.63;;;6.50;99.90;;;;;;5056844;28;20668;-77
2021/03/14 11:29:32;;;;;;;6.25;4.53;;;6.70;99.90;;;;;;5074696;28;20585;-77
2021/03/14 11:31:57;;;;;;;7.00;3.93;;;6.70;99.90;;;;;;5074691;28;20181;-77
2021/03/14 11:34:23;;;;;;;3.40;3.07;;;6.90;99.90;;;;;;5074158;28;20271;-77
2021/03/14 11:36:49;;;;;;;4.73;3.63;;;6.90;99.90;;;;;;5056983;28;20196;-78
2021/03/14 11:39:15;;;;;;;8.23;4.40;;;6.70;99.90;;;;;;5071586;28;20180;-80
2021/03/14 11:41:42;;;;;;;5.03;3.43;;;6.70;99.90;;;;;;5050220;28;20219;-80
2021/03/14 11:44:07;;;;;;;4.47;3.88;;;6.60;99.90;;;;;;5039375;28;20447;-81
2021/03/14 11:46:34;;;;;;;4.90;4.50;;;6.60;99.90;;;;;;5071765;28;20190;-80
2021/03/14 11:49:00;;;;;;;6.75;4.85;;;6.70;99.90;;;;;;5073288;28;20718;-81
2021/03/14 11:51:25;;;;;;;5.00;4.13;;;6.70;99.90;;;;;;5072172;28;20207;-79
2021/03/14 11:53:51;;;;;;;7.40;5.43;;;6.60;99.90;;;;;;5053754;28;20212;-79
2021/03/14 11:56:17;;;;;;;6.03;5.03;;;6.50;99.90;;;;;;5054302;28;20661;-77
2021/03/14 11:58:42;;;;;;;6.97;5.27;;;6.50;99.90;;;;;;5054620;28;20223;-79
2021/03/14 12:01:08;;;;;;;6.00;5.17;;;6.50;99.90;;;;;;5054377;28;20218;-79
2021/03/14 12:03:35;;;;;;;10.03;5.10;;;6.40;99.90;;;;;;5070284;28;20265;-79
2021/03/14 12:06:01;;;;;;;5.28;4.78;;;6.50;99.90;;;;;;5072370;28;20425;-79
2021/03/14 12:08:27;;;;;;;5.30;4.77;;;6.50;99.90;;;;;;5071553;28;20644;-80
2021/03/14 12:10:53;;;;;;;7.50;5.70;;;6.50;99.90;;;;;;5072695;28;20453;-80
2021/03/14 12:13:19;;;;;;;7.95;4.15;;;6.70;99.90;;;;;;5071703;28;20548;-79
2021/03/14 12:15:45;;;;;;;8.13;5.00;;;6.90;99.90;;;;;;5072676;28;20180;-80
2021/03/14 12:18:13;;;;;;;5.68;4.65;;;7.10;99.90;;;;;;5071837;28;20184;-79
2021/03/14 12:20:38;;;;;;;5.13;4.57;;;7.20;99.90;;;;;;5054796;28;20205;-79
2021/03/14 12:23:04;;;;;;;5.43;4.88;;;7.30;99.90;;;;;;5071546;28;20192;-77
2021/03/14 12:25:31;;;;;;;4.83;4.43;;;7.30;99.90;;;;;;5071532;28;20204;-78
2021/03/14 12:27:56;;;;;;;6.72;6.07;;;7.50;99.90;;;;;;5053670;28;20184;-78
2021/03/14 12:30:22;;;;;;;8.90;7.70;;;7.40;99.90;;;;;;5071967;28;20703;-78
2021/03/14 12:32:48;;;;;;;12.68;8.95;;;7.40;99.90;;;;;;5070421;28;20184;-79
2021/03/14 12:35:14;;;;;;;3.70;3.33;;;7.60;99.90;;;;;;5072905;28;20213;-76
2021/03/14 12:37:39;;;;;;;5.00;3.77;;;7.80;99.90;;;;;;5073425;28;20613;-75
2021/03/14 12:40:07;;;;;;;5.27;3.57;;;7.80;99.90;;;;;;5073170;28;20173;-78
2021/03/14 12:42:33;;;;;;;6.68;3.85;;;8.10;99.90;;;;;;5055147;28;20246;-78
2021/03/14 12:44:59;;;;;;;3.50;3.20;;;8.20;99.90;;;;;;5054713;28;20201;-78
2021/03/14 12:47:25;;;;;;;7.00;3.88;;;8.30;99.90;;;;;;5055170;28;20422;-79
2021/03/14 12:49:52;;;;;;;5.50;4.10;;;8.30;99.90;;;;;;5073012;28;20284;-79
2021/03/14 12:52:18;;;;;;;3.67;3.40;;;8.10;99.90;;;;;;5038376;28;20189;-77
2021/03/14 12:54:44;;;;;;;4.60;4.20;;;8.10;99.90;;;;;;5072458;28;20679;-78
2021/03/14 12:57:10;;;;;;;5.03;4.17;;;8.10;99.90;;;;;;5072948;28;20184;-78
2021/03/14 12:59:35;;;;;;;7.20;4.77;;;8.00;99.90;;;;;;5073034;28;20775;-78
2021/03/14 13:02:01;;;;;;;8.10;4.00;;;7.90;99.90;;;;;;5072744;28;20263;-78
2021/03/14 13:04:27;;;;;;;3.37;3.03;;;7.50;99.90;;;;;;5054410;28;20321;-77
2021/03/14 13:06:53;;;;;;;6.82;4.50;;;7.10;99.90;;;;;;5055029;28;20170;-79
2021/03/14 13:09:19;;;;;;;5.00;3.97;;;7.00;99.90;;;;;;5054953;28;20237;-77
2021/03/14 13:11:45;;;;;;;5.17;4.73;;;7.10;99.90;;;;;;5054933;28;20192;-79
2021/03/14 13:14:10;;;;;;;5.67;3.50;;;7.40;99.90;;;;;;5054027;28;20435;-79
2021/03/14 13:16:36;;;;;;;4.20;3.80;;;7.70;99.90;;;;;;5072140;28;20180;-78
2021/03/14 13:19:02;;;;;;;4.73;4.27;;;7.90;99.90;;;;;;5072510;28;20226;-79
2021/03/14 13:21:27;;;;;;;3.50;3.00;;;8.20;99.90;;;;;;5072624;28;20200;-80
2021/03/14 13:23:53;;;;;;;4.50;3.63;;;8.10;99.90;;;;;;5072307;28;20200;-77
2021/03/14 13:26:19;;;;;;;4.27;3.47;;;8.10;99.90;;;;;;5054760;28;20186;-78
2021/03/14 13:28:44;;;;;;;4.33;3.17;;;8.00;99.90;;;;;;5038049;28;20214;-79
2021/03/14 13:31:10;;;;;;;3.17;2.87;;;8.00;99.90;;;;;;5072640;28;20184;-80
2021/03/14 13:33:35;;;;;;;4.73;3.17;;;8.00;99.90;;;;;;5072034;28;20269;-79
2021/03/14 13:36:01;;;;;;;4.90;3.27;;;8.00;99.90;;;;;;5072363;28;20226;-80
2021/03/14 13:38:27;;;;;;;3.60;3.03;;;8.10;99.90;;;;;;5054709;28;20207;-79
2021/03/14 13:40:54;;;;;;;6.18;4.18;;;8.10;99.90;;;;;;5072454;28;20208;-79
2021/03/14 13:43:21;;;;;;;5.60;3.20;;;8.10;99.90;;;;;;5054178;28;20537;-79
2021/03/14 13:45:47;;;;;;;6.57;3.80;;;8.10;99.90;;;;;;5072495;28;20251;-78
2021/03/14 13:48:12;;;;;;;9.87;3.70;;;7.80;99.90;;;;;;5054581;28;20279;-79
2021/03/14 13:50:38;;;;;;;5.20;3.10;;;7.40;99.90;;;;;;5072375;28;20419;-78
2021/03/14 13:53:06;;;;;;;5.00;2.70;;;6.90;99.90;;;;;;5071734;28;20242;-79
2021/03/14 13:55:32;;;;;;;5.15;3.00;;;6.40;99.90;;;;;;5054673;28;20198;-78
2021/03/14 13:57:57;;;;;;;3.13;2.63;;;6.40;99.90;;;;;;5037920;28;20234;-79
2021/03/14 14:00:23;;;;;;;4.87;2.50;;;6.30;99.90;;;;;;5054170;28;20206;-80
2021/03/14 14:02:49;;;;;;;4.60;2.60;;;6.20;99.90;;;;;;5072359;28;20258;-78
2021/03/14 14:05:14;;;;;;;5.23;2.37;;;6.20;99.90;;;;;;5068043;28;20446;-78
2021/03/14 14:07:41;;;;;;;5.73;2.60;;;6.40;99.90;;;;;;5051305;28;20293;-79
2021/03/14 14:10:12;;;;;;;4.50;3.00;;;6.50;99.90;;;;;;5070767;28;20242;-78
2021/03/14 14:12:41;;;;;;;7.22;3.35;;;6.60;99.90;;;;;;5069643;28;20199;-77
2021/03/14 14:15:08;;;;;;;2.70;2.50;;;6.60;99.90;;;;;;5070216;28;20196;-79